createdAt,value
2018-08-12T00:00:18.492Z,70.22
2018-08-12T00:02:46.964Z,71.03
2018-08-12T00:05:15.313Z,71.02
2018-08-12T00:07:43.744Z,71.93
2018-08-12T00:10:12.621Z,71.78
2018-08-12T00:12:41.909Z,71.53
2018-08-12T00:15:12.414Z,71.10
2018-08-12T00:17:40.788Z,71.22
2018-08-12T00:20:13.364Z,69.96
2018-08-12T00:22:41.730Z,70.71
2018-08-12T00:25:12.606Z,71.41
2018-08-12T00:27:41.352Z,71.55
2018-08-12T00:30:11.336Z,71.40
2018-08-12T00:32:39.845Z,71.94
2018-08-12T00:35:11.480Z,71.63
2018-08-12T00:37:40.355Z,72.02
2018-08-12T00:40:10.037Z,72.04
2018-08-12T00:42:38.500Z,72.21
2018-08-12T00:45:08.944Z,71.69
2018-08-12T00:47:37.332Z,71.18
2018-08-12T00:50:06.483Z,70.77
2018-08-12T00:52:34.840Z,71.15
2018-08-12T00:55:03.220Z,72.18
2018-08-12T00:57:31.604Z,71.91
2018-08-12T01:00:00.007Z,72.33
2018-08-12T01:02:28.648Z,71.65
2018-08-12T01:05:13.338Z,72.25
2018-08-12T01:07:55.317Z,72.77
2018-08-12T01:10:23.691Z,72.24
2018-08-12T01:12:52.085Z,72.77
2018-08-12T01:15:21.319Z,73.09
2018-08-12T01:17:49.728Z,73.52
2018-08-12T01:20:24.924Z,73.87
2018-08-12T01:22:53.335Z,73.25
2018-08-12T01:25:22.137Z,72.98
2018-08-12T01:27:50.558Z,73.32
2018-08-12T01:30:21.089Z,74.09
2018-08-12T01:32:49.577Z,73.28
2018-08-12T01:35:18.171Z,73.57
2018-08-12T01:37:47.283Z,73.20
2018-08-12T01:40:16.904Z,73.95
2018-08-12T01:42:45.747Z,73.91
2018-08-12T01:45:15.754Z,74.05
2018-08-12T01:47:45.943Z,74.58
2018-08-12T01:50:15.673Z,73.71
2018-08-12T01:52:44.055Z,74.49
2018-08-12T01:55:12.437Z,74.08
2018-08-12T01:57:40.841Z,74.08
2018-08-12T02:00:13.417Z,74.02
2018-08-12T02:02:41.788Z,74.29
2018-08-12T02:05:10.172Z,74.32
2018-08-12T02:07:38.556Z,74.33
2018-08-12T02:10:07.856Z,74.25
2018-08-12T02:12:36.228Z,74.76
2018-08-12T02:15:05.655Z,74.55
2018-08-12T02:17:34.047Z,74.90
2018-08-12T02:20:02.598Z,75.02
2018-08-12T02:22:31.003Z,74.96
2018-08-12T02:24:59.368Z,74.47
2018-08-12T02:27:27.715Z,73.73
2018-08-12T02:29:56.042Z,73.95
2018-08-12T02:32:24.459Z,73.71
2018-08-12T02:34:53.011Z,73.85
2018-08-12T02:37:21.460Z,74.35
2018-08-12T02:39:49.837Z,74.35
2018-08-12T02:42:18.224Z,74.46
2018-08-12T02:44:46.567Z,74.68
2018-08-12T02:47:14.939Z,74.36
2018-08-12T02:49:43.308Z,74.88
2018-08-12T02:52:11.668Z,74.31
2018-08-12T02:54:40.619Z,74.52
2018-08-12T02:57:09.013Z,75.12
2018-08-12T02:59:37.373Z,74.84
2018-08-12T03:02:05.843Z,74.60
2018-08-12T03:04:34.195Z,74.74
2018-08-12T03:07:02.928Z,74.91
2018-08-12T03:09:31.288Z,75.03
2018-08-12T03:11:59.713Z,75.32
2018-08-12T03:14:28.108Z,75.03
2018-08-12T03:16:56.492Z,74.67
2018-08-12T03:19:25.167Z,74.91
2018-08-12T03:21:53.568Z,74.72
2018-08-12T03:24:21.939Z,74.80
2018-08-12T03:26:50.290Z,75.00
2018-08-12T03:29:18.692Z,75.33
2018-08-12T03:31:47.044Z,75.39
2018-08-12T03:34:15.405Z,75.97
2018-08-12T03:36:43.759Z,75.97
2018-08-12T03:39:12.724Z,75.61
2018-08-12T03:41:41.097Z,76.33
2018-08-12T03:44:09.456Z,76.11
2018-08-12T03:46:37.935Z,76.47
2018-08-12T03:49:06.383Z,76.70
2018-08-12T03:51:34.852Z,76.35
2018-08-12T03:54:03.305Z,76.53
2018-08-12T03:56:31.660Z,76.62
2018-08-12T03:59:00.280Z,77.56
2018-08-12T04:01:28.627Z,76.65
2018-08-12T04:03:56.991Z,77.30
2018-08-12T04:06:25.319Z,76.11
2018-08-12T04:08:53.704Z,76.39
2018-08-12T04:11:22.077Z,76.90
2018-08-12T04:13:50.449Z,76.90
2018-08-12T04:16:18.824Z,76.02
2018-08-12T04:18:47.212Z,76.19
2018-08-12T04:21:15.584Z,75.88
2018-08-12T04:23:43.976Z,75.73
2018-08-12T04:26:12.303Z,75.30
2018-08-12T04:28:40.711Z,75.05
2018-08-12T04:31:09.072Z,75.46
2018-08-12T04:33:37.428Z,75.08
2018-08-12T04:36:05.815Z,74.97
2018-08-12T04:38:34.216Z,75.21
2018-08-12T04:41:02.561Z,74.64
2018-08-12T04:43:31.092Z,74.91
2018-08-12T04:45:59.869Z,74.90
2018-08-12T04:48:28.632Z,73.95
2018-08-12T04:50:56.971Z,74.33
2018-08-12T04:53:25.376Z,74.90
2018-08-12T04:55:54.208Z,74.42
2018-08-12T04:58:22.600Z,74.75
2018-08-12T05:00:51.164Z,74.11
2018-08-12T05:03:19.573Z,74.76
2018-08-12T05:05:47.973Z,73.34
2018-08-12T05:08:16.400Z,72.49
2018-08-12T05:10:45.112Z,73.32
2018-08-12T05:13:13.530Z,73.63
2018-08-12T05:15:41.930Z,74.01
2018-08-12T05:18:10.309Z,74.05
2018-08-12T05:20:38.881Z,73.27
2018-08-12T05:23:07.268Z,72.01
2018-08-12T05:25:35.644Z,71.31
2018-08-12T05:28:04.040Z,69.71
2018-08-12T05:30:32.419Z,69.50
2018-08-12T05:33:00.808Z,70.34
2018-08-12T05:35:29.207Z,70.11
2018-08-12T05:37:57.599Z,69.59
2018-08-12T05:40:25.956Z,68.08
2018-08-12T05:42:54.344Z,67.13
2018-08-12T05:45:22.708Z,65.72
2018-08-12T05:47:51.127Z,66.92
2018-08-12T05:50:19.504Z,63.40
2018-08-12T05:52:47.860Z,61.06
2018-08-12T05:55:16.295Z,58.87
2018-08-12T05:57:45.008Z,57.12
2018-08-12T06:00:14.942Z,55.58
2018-08-12T06:02:44.427Z,55.24
2018-08-12T06:05:12.819Z,55.69
2018-08-12T06:07:41.300Z,56.22
2018-08-12T06:10:11.220Z,57.37
2018-08-12T06:12:39.856Z,57.97
2018-08-12T06:15:09.792Z,57.71
2018-08-12T06:17:38.292Z,56.58
2018-08-12T06:20:09.024Z,58.06
2018-08-12T06:22:37.400Z,57.45
2018-08-12T06:25:07.118Z,54.04
2018-08-12T06:27:35.491Z,52.81
2018-08-12T06:30:05.523Z,47.42
2018-08-12T06:32:33.889Z,41.21
2018-08-12T06:35:02.721Z,38.88
2018-08-12T06:37:31.099Z,42.04
2018-08-12T06:39:59.513Z,41.06
2018-08-12T06:42:27.847Z,40.74
2018-08-12T06:44:56.243Z,37.60
2018-08-12T06:47:24.765Z,37.42
2018-08-12T06:49:53.154Z,38.03
2018-08-12T06:52:21.539Z,37.16
2018-08-12T06:54:49.932Z,37.13
2018-08-12T06:57:18.284Z,36.77
2018-08-12T06:59:46.693Z,35.97
2018-08-12T07:02:15.067Z,34.43
2018-08-12T07:04:43.448Z,34.35
2018-08-12T07:07:11.920Z,33.42
2018-08-12T07:09:40.320Z,33.65
2018-08-12T07:12:08.703Z,33.50
2018-08-12T07:14:37.112Z,34.80
2018-08-12T07:17:05.495Z,35.12
2018-08-12T07:19:33.925Z,33.13
2018-08-12T07:22:02.320Z,30.91
2018-08-12T07:24:30.712Z,30.41
2018-08-12T07:26:59.136Z,28.70
2018-08-12T07:29:27.663Z,27.52
2018-08-12T07:31:56.088Z,28.86
2018-08-12T07:34:24.475Z,27.67
2018-08-12T07:36:52.848Z,28.36
2018-08-12T07:39:21.291Z,27.42
2018-08-12T07:41:49.688Z,28.04
2018-08-12T07:44:18.095Z,28.19
2018-08-12T07:46:46.441Z,28.16
2018-08-12T07:49:14.833Z,26.80
2018-08-12T07:51:43.212Z,25.70
2018-08-12T07:54:11.857Z,25.01
2018-08-12T07:56:40.236Z,26.26
2018-08-12T07:59:08.615Z,24.09
2018-08-12T08:01:36.981Z,23.05
2018-08-12T08:04:05.423Z,22.11
2018-08-12T08:06:34.220Z,22.49
2018-08-12T08:09:02.664Z,26.25
2018-08-12T08:11:31.069Z,26.94
2018-08-12T08:13:59.460Z,22.31
2018-08-12T08:16:27.879Z,28.97
2018-08-12T08:18:56.312Z,27.29
2018-08-12T08:21:24.728Z,23.63
2018-08-12T08:23:53.128Z,24.96
2018-08-12T08:26:21.499Z,27.88
2018-08-12T08:28:49.860Z,25.42
2018-08-12T08:31:19.460Z,24.47
2018-08-12T08:33:48.651Z,23.40
2018-08-12T08:36:18.656Z,27.13
2018-08-12T08:38:47.091Z,24.20
2018-08-12T08:41:15.491Z,24.38
2018-08-12T08:43:43.862Z,22.97
2018-08-12T08:46:12.308Z,24.55
2018-08-12T08:48:40.728Z,21.90
2018-08-12T08:51:09.437Z,19.89
2018-08-12T08:53:38.741Z,22.92
2018-08-12T08:56:07.284Z,20.37
2018-08-12T08:58:35.676Z,20.60
2018-08-12T09:01:04.124Z,21.14
2018-08-12T09:03:32.468Z,20.63
2018-08-12T09:06:00.895Z,19.91
2018-08-12T09:08:29.546Z,19.10
2018-08-12T09:10:57.705Z,18.69
2018-08-12T09:13:26.099Z,17.58
2018-08-12T09:15:54.601Z,18.60
2018-08-12T09:18:23.071Z,17.48
2018-08-12T09:20:51.452Z,19.21
2018-08-12T09:23:19.820Z,17.94
2018-08-12T09:25:48.492Z,17.50
2018-08-12T09:28:16.863Z,18.33
2018-08-12T09:30:45.308Z,16.76
2018-08-12T09:33:13.687Z,15.15
2018-08-12T09:35:42.084Z,15.87
2018-08-12T09:38:10.503Z,16.53
2018-08-12T09:40:39.282Z,20.24
2018-08-12T09:43:07.794Z,19.66
2018-08-12T09:45:36.109Z,18.36
2018-08-12T09:48:04.752Z,20.11
2018-08-12T09:50:33.171Z,18.10
2018-08-12T09:53:06.879Z,15.89
2018-08-12T09:55:35.682Z,15.10
2018-08-12T09:58:04.160Z,16.64
2018-08-12T10:00:40.091Z,16.34
2018-08-12T10:03:09.175Z,14.87
2018-08-12T10:05:37.658Z,18.73
2018-08-12T10:08:06.681Z,17.21
2018-08-12T10:10:35.052Z,16.06
2018-08-12T10:13:03.460Z,14.93
2018-08-12T10:15:31.881Z,14.87
2018-08-12T10:18:01.796Z,16.46
2018-08-12T10:20:30.250Z,18.06
2018-08-12T10:22:58.687Z,17.71
2018-08-12T10:25:27.164Z,16.55
2018-08-12T10:27:55.536Z,16.27
2018-08-12T10:30:23.964Z,14.85
2018-08-12T10:32:52.408Z,13.58
2018-08-12T10:35:21.023Z,13.15
2018-08-12T10:37:49.432Z,14.39
2018-08-12T10:40:19.417Z,17.04
2018-08-12T10:42:48.636Z,19.58
2018-08-12T10:45:17.660Z,17.60
2018-08-12T10:47:46.438Z,15.30
2018-08-12T10:50:16.808Z,15.01
2018-08-12T10:52:46.004Z,17.51
2018-08-12T10:55:15.732Z,16.98
2018-08-12T10:57:44.224Z,16.10
2018-08-12T11:00:14.883Z,14.82
2018-08-12T11:02:51.038Z,14.05
2018-08-12T11:05:19.531Z,16.63
2018-08-12T11:07:50.955Z,16.96
2018-08-12T11:10:19.435Z,17.19
2018-08-12T11:12:48.007Z,16.88
2018-08-12T11:15:16.701Z,16.19
2018-08-12T11:17:45.967Z,14.33
2018-08-12T11:20:14.705Z,13.21
2018-08-12T11:22:43.103Z,13.11
2018-08-12T11:25:12.288Z,13.18
2018-08-12T11:27:40.735Z,15.07
2018-08-12T11:30:11.244Z,14.11
2018-08-12T11:32:40.000Z,14.38
2018-08-12T11:35:10.596Z,16.14
2018-08-12T11:37:39.244Z,17.65
2018-08-12T11:40:08.808Z,15.83
2018-08-12T11:42:37.247Z,14.97
2018-08-12T11:45:09.029Z,14.82
2018-08-12T11:47:37.491Z,13.06
2018-08-12T11:50:06.436Z,11.88
2018-08-12T11:52:34.849Z,12.80
2018-08-12T11:55:03.514Z,13.94
2018-08-12T11:57:31.912Z,13.21
2018-08-12T12:00:00.285Z,15.74
2018-08-12T12:02:28.683Z,16.65
2018-08-12T12:04:57.083Z,15.70
2018-08-12T12:07:25.508Z,14.00
2018-08-12T12:09:53.894Z,13.96
2018-08-12T12:12:23.263Z,13.30
2018-08-12T12:14:51.623Z,12.71
2018-08-12T12:17:20.045Z,13.69
2018-08-12T12:19:48.660Z,14.18
2018-08-12T12:22:17.113Z,13.36
2018-08-12T12:24:45.513Z,15.36
2018-08-12T12:27:18.156Z,15.40
2018-08-12T12:29:47.952Z,13.47
2018-08-12T12:32:16.909Z,13.23
2018-08-12T12:34:45.288Z,14.79
2018-08-12T12:37:13.742Z,18.20
2018-08-12T12:39:42.264Z,16.07
2018-08-12T12:42:11.552Z,14.55
2018-08-12T12:44:41.008Z,15.11
2018-08-12T12:47:09.519Z,15.95
2018-08-12T12:49:38.852Z,15.20
2018-08-12T12:52:08.525Z,16.02
2018-08-12T12:54:37.952Z,16.58
2018-08-12T12:57:06.410Z,16.52
2018-08-12T12:59:34.824Z,14.12
2018-08-12T13:02:03.219Z,17.99
2018-08-12T13:04:32.080Z,15.80
2018-08-12T13:07:00.496Z,20.00
2018-08-12T13:09:28.876Z,19.33
2018-08-12T13:11:57.380Z,18.21
2018-08-12T13:14:26.333Z,18.92
2018-08-12T13:16:55.353Z,17.73
2018-08-12T13:19:25.344Z,17.11
2018-08-12T13:21:55.242Z,16.76
2018-08-12T13:24:24.943Z,16.39
2018-08-12T13:26:54.407Z,16.34
2018-08-12T13:29:23.290Z,16.86
2018-08-12T13:31:53.048Z,16.57
2018-08-12T13:34:21.542Z,17.36
2018-08-12T13:36:49.980Z,14.89
2018-08-12T13:39:18.363Z,17.33
2018-08-12T13:41:46.804Z,17.92
2018-08-12T13:44:16.303Z,17.54
2018-08-12T13:46:45.768Z,17.25
2018-08-12T13:49:15.762Z,17.33
2018-08-12T13:51:45.152Z,18.34
2018-08-12T13:54:15.460Z,19.98
2018-08-12T13:56:45.025Z,19.65
2018-08-12T13:59:14.382Z,17.65
2018-08-12T14:01:44.515Z,17.33
2018-08-12T14:04:14.808Z,17.34
2018-08-12T14:06:44.968Z,15.81
2018-08-12T14:09:14.874Z,16.02
2018-08-12T14:11:44.764Z,15.21
2018-08-12T14:14:13.176Z,16.72
2018-08-12T14:16:41.575Z,16.64
2018-08-12T14:19:09.991Z,15.98
2018-08-12T14:21:38.389Z,18.71
2018-08-12T14:24:06.872Z,18.64
2018-08-12T14:26:35.292Z,19.43
2018-08-12T14:29:03.701Z,18.69
2018-08-12T14:31:33.009Z,18.98
2018-08-12T14:34:01.540Z,19.78
2018-08-12T14:36:29.975Z,18.17
2018-08-12T14:38:58.344Z,18.27
2018-08-12T14:41:26.759Z,18.54
2018-08-12T14:43:55.193Z,18.64
2018-08-12T14:46:23.605Z,18.44
2018-08-12T14:48:52.344Z,17.99
2018-08-12T14:51:20.777Z,17.69
2018-08-12T14:53:49.228Z,19.31
2018-08-12T14:56:17.957Z,19.04
2018-08-12T14:58:46.371Z,17.87
2018-08-12T15:01:14.732Z,18.17
2018-08-12T15:03:43.164Z,16.58
2018-08-12T15:06:11.544Z,19.03
2018-08-12T15:08:39.939Z,18.13
2018-08-12T15:11:08.361Z,19.12
2018-08-12T15:13:36.724Z,19.48
2018-08-12T15:16:05.117Z,19.81
2018-08-12T15:18:33.523Z,20.40
2018-08-12T15:21:01.918Z,18.38
2018-08-12T15:23:30.320Z,19.51
2018-08-12T15:25:58.764Z,20.73
2018-08-12T15:28:27.143Z,20.90
2018-08-12T15:30:55.539Z,21.95
2018-08-12T15:33:24.626Z,21.49
2018-08-12T15:35:53.052Z,22.74
2018-08-12T15:38:21.441Z,22.92
2018-08-12T15:40:49.844Z,23.72
2018-08-12T15:43:18.183Z,23.37
2018-08-12T15:45:46.568Z,22.68
2018-08-12T15:48:14.951Z,23.24
2018-08-12T15:50:43.409Z,22.01
2018-08-12T15:53:11.868Z,22.97
2018-08-12T15:55:40.259Z,22.89
2018-08-12T15:58:08.655Z,23.85
2018-08-12T16:00:37.099Z,23.70
2018-08-12T16:03:05.939Z,24.77
2018-08-12T16:05:34.659Z,24.94
2018-08-12T16:08:03.637Z,25.21
2018-08-12T16:10:32.140Z,25.25
2018-08-12T16:13:01.076Z,25.40
2018-08-12T16:15:29.432Z,24.73
2018-08-12T16:17:57.804Z,25.09
2018-08-12T16:20:26.184Z,25.68
2018-08-12T16:22:54.512Z,25.08
2018-08-12T16:25:23.013Z,25.18
2018-08-12T16:27:51.780Z,25.25
2018-08-12T16:30:20.439Z,26.05
2018-08-12T16:32:49.088Z,26.05
2018-08-12T16:35:18.221Z,26.37
2018-08-12T16:37:47.043Z,25.77
2018-08-12T16:40:17.168Z,26.64
2018-08-12T16:42:45.812Z,25.83
2018-08-12T16:45:15.332Z,26.45
2018-08-12T16:47:44.155Z,26.62
2018-08-12T16:50:12.828Z,27.06
2018-08-12T16:52:41.692Z,26.86
2018-08-12T16:55:12.132Z,26.90
2018-08-12T16:57:40.539Z,26.42
2018-08-12T17:00:11.760Z,26.87
2018-08-12T17:02:40.125Z,26.57
2018-08-12T17:05:10.760Z,27.61
2018-08-12T17:07:39.199Z,27.09
2018-08-12T17:10:08.560Z,28.35
2018-08-12T17:12:36.941Z,28.42
2018-08-12T17:15:06.444Z,28.46
2018-08-12T17:17:34.896Z,27.80
2018-08-12T17:20:03.534Z,28.21
2018-08-12T17:22:32.196Z,28.06
2018-08-12T17:25:00.624Z,27.94
2018-08-12T17:27:29.297Z,28.51
2018-08-12T17:29:57.671Z,28.32
2018-08-12T17:32:26.082Z,28.86
2018-08-12T17:34:54.475Z,29.14
2018-08-12T17:37:22.854Z,28.53
2018-08-12T17:39:51.316Z,28.79
2018-08-12T17:42:20.120Z,29.07
2018-08-12T17:44:48.480Z,29.14
2018-08-12T17:47:16.871Z,29.06
2018-08-12T17:49:45.518Z,28.88
2018-08-12T17:52:13.948Z,29.78
2018-08-12T17:54:42.287Z,29.28
2018-08-12T17:57:10.960Z,29.63
2018-08-12T17:59:39.332Z,29.38
2018-08-12T18:02:07.739Z,29.31
2018-08-12T18:04:36.101Z,29.67
2018-08-12T18:07:04.744Z,31.12
2018-08-12T18:09:33.083Z,30.56
2018-08-12T18:12:01.492Z,30.69
2018-08-12T18:14:29.832Z,31.51
2018-08-12T18:16:58.636Z,31.16
2018-08-12T18:19:26.992Z,31.14
2018-08-12T18:21:55.357Z,31.45
2018-08-12T18:24:23.744Z,33.04
2018-08-12T18:26:52.175Z,33.02
2018-08-12T18:29:20.531Z,34.72
2018-08-12T18:31:49.038Z,35.53
2018-08-12T18:34:17.440Z,35.88
2018-08-12T18:36:45.792Z,36.81
2018-08-12T18:39:14.128Z,36.22
2018-08-12T18:41:42.507Z,37.36
2018-08-12T18:44:11.455Z,38.33
2018-08-12T18:46:40.356Z,39.21
2018-08-12T18:49:08.687Z,39.67
2018-08-12T18:51:37.072Z,39.53
2018-08-12T18:54:05.484Z,39.30
2018-08-12T18:56:33.855Z,39.74
2018-08-12T18:59:02.183Z,40.60
2018-08-12T19:01:30.625Z,41.37
2018-08-12T19:03:58.979Z,42.02
2018-08-12T19:06:27.411Z,43.37
2018-08-12T19:08:55.776Z,44.60
2018-08-12T19:11:24.520Z,44.91
2018-08-12T19:13:52.848Z,45.95
2018-08-12T19:16:21.231Z,45.27
2018-08-12T19:18:49.612Z,46.52
2018-08-12T19:21:18.236Z,46.93
2018-08-12T19:23:46.596Z,47.94
2018-08-12T19:26:14.956Z,48.18
2018-08-12T19:28:43.308Z,48.51
2018-08-12T19:31:11.619Z,48.78
2018-08-12T19:33:40.068Z,49.19
2018-08-12T19:36:08.396Z,50.10
2018-08-12T19:38:36.828Z,49.85
2018-08-12T19:41:05.187Z,49.64
2018-08-12T19:43:33.569Z,50.75
2018-08-12T19:46:01.924Z,50.22
2018-08-12T19:48:30.296Z,50.30
2018-08-12T19:50:58.947Z,50.56
2018-08-12T19:53:27.354Z,50.98
2018-08-12T19:55:55.704Z,51.38
2018-08-12T19:58:24.139Z,51.54
2018-08-12T20:00:52.484Z,51.36
2018-08-12T20:03:20.867Z,51.75
2018-08-12T20:05:49.271Z,52.89
2018-08-12T20:08:17.648Z,53.07
2018-08-12T20:10:46.020Z,52.75
2018-08-12T20:13:14.398Z,53.15
2018-08-12T20:15:42.748Z,53.41
2018-08-12T20:18:11.155Z,53.88
2018-08-12T20:20:39.488Z,54.21
2018-08-12T20:23:07.881Z,53.66
2018-08-12T20:25:36.266Z,54.04
2018-08-12T20:28:04.746Z,53.58
2018-08-12T20:30:33.048Z,53.95
2018-08-12T20:33:01.422Z,54.22
2018-08-12T20:35:29.792Z,54.31
2018-08-12T20:37:58.204Z,53.98
2018-08-12T20:40:26.583Z,54.13
2018-08-12T20:42:55.050Z,54.13
2018-08-12T20:45:23.408Z,54.50
2018-08-12T20:47:52.124Z,53.60
2018-08-12T20:50:20.563Z,54.41
2018-08-12T20:52:48.912Z,54.78
2018-08-12T20:55:17.622Z,55.14
2018-08-12T20:57:46.000Z,54.52
2018-08-12T21:00:14.772Z,54.88
2018-08-12T21:02:43.163Z,54.96
2018-08-12T21:05:11.544Z,54.78
2018-08-12T21:07:41.209Z,54.76
2018-08-12T21:10:09.789Z,55.18
2018-08-12T21:12:38.221Z,55.91
2018-08-12T21:15:06.921Z,55.71
2018-08-12T21:17:35.352Z,55.86
2018-08-12T21:20:03.768Z,55.93
2018-08-12T21:22:32.158Z,55.68
2018-08-12T21:25:00.499Z,55.93
2018-08-12T21:27:28.919Z,56.32
2018-08-12T21:29:57.251Z,56.33
2018-08-12T21:32:26.044Z,56.58
2018-08-12T21:34:54.391Z,56.57
2018-08-12T21:37:22.787Z,56.78
2018-08-12T21:39:51.149Z,56.81
2018-08-12T21:42:19.740Z,56.97
2018-08-12T21:44:48.167Z,56.40
2018-08-12T21:47:16.515Z,56.75
2018-08-12T21:49:44.862Z,56.16
2018-08-12T21:52:13.219Z,56.71
2018-08-12T21:54:41.604Z,56.56
2018-08-12T21:57:10.783Z,56.48
2018-08-12T21:59:39.176Z,56.36
2018-08-12T22:02:07.888Z,56.79
2018-08-12T22:04:36.272Z,56.87
2018-08-12T22:07:04.696Z,56.91
2018-08-12T22:09:33.092Z,57.27
2018-08-12T22:12:01.424Z,56.90
2018-08-12T22:14:30.048Z,57.58
2018-08-12T22:16:58.400Z,57.25
2018-08-12T22:19:26.768Z,57.42
2018-08-12T22:21:55.164Z,57.51
2018-08-12T22:24:24.012Z,57.29
2018-08-12T22:26:52.389Z,56.94
2018-08-12T22:29:20.780Z,57.32
2018-08-12T22:31:49.156Z,57.63
2018-08-12T22:34:17.512Z,57.95
2018-08-12T22:36:45.854Z,58.60
2018-08-12T22:39:14.200Z,58.47
2018-08-12T22:41:42.587Z,58.29
2018-08-12T22:44:10.967Z,58.44
2018-08-12T22:46:39.324Z,58.93
2018-08-12T22:49:07.711Z,59.10
2018-08-12T22:51:36.041Z,59.03
2018-08-12T22:54:04.444Z,58.06
2018-08-12T22:56:32.781Z,58.84
2018-08-12T22:59:01.172Z,58.24
2018-08-12T23:01:29.592Z,58.02
2018-08-12T23:03:58.196Z,58.46
2018-08-12T23:06:26.576Z,58.61
2018-08-12T23:08:54.926Z,59.23
2018-08-12T23:11:23.275Z,58.40
2018-08-12T23:13:51.651Z,58.02
2018-08-12T23:16:31.235Z,58.59
2018-08-12T23:18:59.616Z,58.63
2018-08-12T23:21:28.210Z,58.87
2018-08-12T23:23:56.600Z,59.45
2018-08-12T23:26:25.251Z,59.41
2018-08-12T23:28:54.004Z,59.38
2018-08-12T23:31:22.348Z,59.66
2018-08-12T23:33:50.927Z,59.16
2018-08-12T23:36:19.283Z,57.25
2018-08-12T23:38:47.644Z,54.89
2018-08-12T23:41:15.972Z,50.39
2018-08-12T23:43:44.324Z,55.36
2018-08-12T23:46:12.728Z,55.43
2018-08-12T23:48:41.123Z,56.06
2018-08-12T23:51:09.522Z,56.24
2018-08-12T23:53:37.891Z,53.46
2018-08-12T23:56:06.324Z,55.48
2018-08-12T23:58:34.688Z,54.93
